Time;durP1;ratioP1;P1;durP2;ratioP2;P2;SDS_P1;SDS_P2;PMS_P1;PMS_P2;Temp;Humidity;BMP_temperature;BMP_pressure;BME280_temperature;BME280_humidity;BME280_pressure;Samples;Min_cycle;Max_cycle;Signal;HPM_P1;HPM_P2
2022/01/30 00:01:22;;;;;;;4.25;1.13;;;28.80;67.00;;;;;;4150892;28;20034;-68
2022/01/30 00:03:48;;;;;;;3.75;1.10;;;28.80;66.90;;;;;;4149976;28;20457;-71
2022/01/30 00:06:10;;;;;;;2.58;1.20;;;28.80;66.90;;;;;;4148961;28;20041;-70
2022/01/30 00:08:33;;;;;;;5.97;1.50;;;28.90;67.00;;;;;;4157269;28;20040;-70
2022/01/30 00:11:03;;;;;;;4.25;1.38;;;28.90;66.80;;;;;;4157201;28;20092;-68
2022/01/30 00:13:27;;;;;;;4.47;1.50;;;28.90;66.50;;;;;;4163104;28;20065;-69
2022/01/30 00:15:53;;;;;;;4.80;1.42;;;29.00;66.70;;;;;;4154652;28;20052;-67
2022/01/30 00:20:45;;;;;;;4.25;0.93;;;29.00;66.30;;;;;;4157620;28;20029;-69
2022/01/30 00:23:23;;;;;;;4.18;1.42;;;29.00;66.20;;;;;;4160423;28;20618;-68
2022/01/30 00:25:56;;;;;;;3.28;1.00;;;29.10;66.40;;;;;;4156838;28;20111;-66
2022/01/30 00:28:21;;;;;;;6.80;1.90;;;29.10;66.40;;;;;;4155649;28;20038;-67
2022/01/30 00:30:44;;;;;;;5.05;1.65;;;29.20;66.50;;;;;;4159755;28;20087;-67
2022/01/30 00:33:06;;;;;;;4.50;1.30;;;29.20;66.50;;;;;;4157763;28;20050;-76
2022/01/30 00:35:29;;;;;;;5.22;1.40;;;29.20;66.50;;;;;;4159419;28;20041;-78
2022/01/30 00:37:52;;;;;;;4.07;1.00;;;29.20;66.50;;;;;;4156141;28;20088;-75
2022/01/30 00:40:14;;;;;;;2.78;1.15;;;29.20;66.40;;;;;;4153513;28;20040;-72
2022/01/30 00:42:37;;;;;;;2.17;1.08;;;29.30;66.40;;;;;;4153092;28;20045;-80
2022/01/30 00:44:59;;;;;;;3.25;1.27;;;29.30;66.30;;;;;;4160762;28;20056;-78
2022/01/30 00:47:22;;;;;;;4.05;1.40;;;29.30;66.40;;;;;;4157838;28;20040;-83
2022/01/30 00:49:44;;;;;;;4.95;1.20;;;29.40;66.30;;;;;;4159214;28;20041;-82
2022/01/30 00:52:10;;;;;;;3.83;1.27;;;29.40;66.20;;;;;;4150838;28;20120;-76
2022/01/30 00:54:33;;;;;;;3.92;1.17;;;29.50;66.20;;;;;;4157559;28;20106;-72
2022/01/30 00:56:55;;;;;;;3.40;1.27;;;29.50;66.10;;;;;;4153189;28;20267;-78
2022/01/30 00:59:18;;;;;;;3.75;1.23;;;29.50;66.00;;;;;;4154095;28;20046;-77
2022/01/30 01:01:40;;;;;;;3.08;1.15;;;29.60;66.00;;;;;;4156071;28;20068;-77
2022/01/30 01:04:03;;;;;;;1.70;0.83;;;29.60;66.00;;;;;;4159800;28;20057;-77
2022/01/30 01:06:26;;;;;;;2.15;0.90;;;29.70;65.90;;;;;;4159688;28;20280;-79
2022/01/30 01:08:52;;;;;;;3.38;1.17;;;29.70;65.80;;;;;;4161788;28;20049;-78
2022/01/30 01:20:58;;;;;;;3.40;1.13;;;29.90;65.30;;;;;;4158696;28;20045;-78
2022/01/30 01:24:35;;;;;;;2.53;1.23;;;30.00;65.40;;;;;;4162191;28;20077;-79
2022/01/30 01:26:58;;;;;;;5.18;1.10;;;30.00;65.30;;;;;;4158511;28;20048;-77
2022/01/30 01:29:20;;;;;;;2.45;0.90;;;30.00;65.10;;;;;;4163738;28;20037;-80
2022/01/30 01:31:43;;;;;;;3.35;1.33;;;30.00;65.10;;;;;;4160211;28;20678;-67
2022/01/30 01:34:30;;;;;;;3.72;0.95;;;30.10;65.20;;;;;;4155785;28;20076;-68
2022/01/30 01:36:52;;;;;;;2.53;0.82;;;30.10;65.30;;;;;;4160934;28;20065;-68
2022/01/30 01:39:14;;;;;;;2.60;1.10;;;30.10;65.20;;;;;;4160340;28;20467;-68
2022/01/30 01:41:37;;;;;;;2.50;1.17;;;30.10;65.20;;;;;;4156324;28;20021;-68
2022/01/30 01:44:00;;;;;;;2.85;1.02;;;30.10;65.10;;;;;;4153053;28;20132;-66
2022/01/30 01:46:27;;;;;;;2.22;1.10;;;30.10;61.60;;;;;;4154335;28;20029;-68
2022/01/30 01:48:51;;;;;;;1.98;1.23;;;30.00;59.40;;;;;;4150917;28;20045;-69
2022/01/30 01:51:20;;;;;;;2.80;1.25;;;29.80;58.60;;;;;;4157908;28;20030;-67
2022/01/30 01:53:42;;;;;;;1.75;1.00;;;29.60;57.10;;;;;;4153484;28;20046;-67
2022/01/30 01:56:05;;;;;;;3.10;0.90;;;29.40;56.00;;;;;;4152184;28;20034;-65
2022/01/30 01:58:29;;;;;;;1.92;1.00;;;29.20;55.40;;;;;;4160065;28;20747;-68
2022/01/30 02:00:51;;;;;;;2.10;1.05;;;29.00;56.80;;;;;;4155451;28;20034;-68
2022/01/30 02:03:16;;;;;;;1.80;1.10;;;28.80;55.10;;;;;;4156177;28;20083;-65
2022/01/30 02:05:50;;;;;;;11.82;2.13;;;28.70;55.10;;;;;;4162343;28;20959;-65
2022/01/30 02:10:50;;;;;;;4.40;1.33;;;28.60;57.80;;;;;;4149284;28;20056;-64
2022/01/30 02:24:16;;;;;;;2.77;1.20;;;29.20;61.00;;;;;;4135169;28;20050;-68
2022/01/30 02:26:45;;;;;;;2.28;1.40;;;29.30;59.70;;;;;;4148095;28;20065;-78
2022/01/30 02:29:08;;;;;;;1.95;1.10;;;29.20;58.20;;;;;;4148765;28;20038;-74
2022/01/30 02:31:35;;;;;;;2.60;1.20;;;29.10;56.90;;;;;;4150909;28;20120;-71
2022/01/30 02:33:57;;;;;;;4.50;1.20;;;28.90;57.00;;;;;;4135265;28;20066;-71
2022/01/30 02:36:19;;;;;;;2.95;1.13;;;28.80;56.80;;;;;;4154586;28;20036;-73
2022/01/30 02:38:42;;;;;;;3.45;1.40;;;28.60;55.70;;;;;;4154067;28;20092;-71
2022/01/30 02:41:04;;;;;;;2.58;1.27;;;28.50;56.20;;;;;;4152324;28;20045;-75
2022/01/30 02:43:35;;;;;;;2.20;1.00;;;28.30;55.70;;;;;;4156451;28;20096;-75
2022/01/30 02:46:19;;;;;;;2.60;1.20;;;28.20;55.90;;;;;;4141760;28;20072;-74
2022/01/30 02:48:58;;;;;;;2.70;1.10;;;28.10;56.40;;;;;;4147817;28;20451;-76
2022/01/30 02:51:22;;;;;;;2.00;0.98;;;27.90;56.50;;;;;;4162063;28;20044;-75
2022/01/30 02:53:54;;;;;;;2.17;1.00;;;27.90;56.30;;;;;;4156485;28;20044;-74
2022/01/30 02:56:17;;;;;;;1.58;0.95;;;27.80;56.30;;;;;;4147162;28;20063;-74
2022/01/30 02:58:39;;;;;;;2.60;1.00;;;27.70;56.60;;;;;;4154114;28;20065;-75
2022/01/30 03:01:01;;;;;;;2.53;1.10;;;27.60;56.50;;;;;;4152585;28;20029;-75
2022/01/30 03:03:24;;;;;;;2.03;1.10;;;27.60;56.40;;;;;;4155632;28;20065;-69
2022/01/30 03:05:46;;;;;;;1.80;1.00;;;27.50;55.70;;;;;;4156323;28;20162;-68
2022/01/30 03:08:09;;;;;;;1.85;1.10;;;27.30;55.80;;;;;;4156698;28;20052;-69
2022/01/30 03:10:31;;;;;;;2.13;1.10;;;27.30;56.40;;;;;;4155415;28;20381;-68
2022/01/30 03:12:53;;;;;;;2.53;0.95;;;27.20;56.30;;;;;;4149346;28;20499;-70
2022/01/30 03:15:16;;;;;;;1.60;0.85;;;27.10;56.20;;;;;;4146581;28;20123;-69
2022/01/30 03:17:40;;;;;;;1.88;0.98;;;27.00;56.70;;;;;;4146141;28;20514;-67
2022/01/30 03:20:03;;;;;;;3.40;0.90;;;26.90;56.80;;;;;;4146674;28;20081;-74
2022/01/30 03:22:26;;;;;;;3.05;1.13;;;26.80;57.30;;;;;;4146223;28;20237;-77
2022/01/30 03:24:49;;;;;;;1.20;0.70;;;26.80;57.50;;;;;;4155223;28;20095;-73
2022/01/30 03:27:13;;;;;;;2.53;1.13;;;26.80;57.10;;;;;;4144376;28;20046;-73
2022/01/30 03:29:37;;;;;;;1.70;1.10;;;26.70;56.90;;;;;;4141324;28;20041;-70
2022/01/30 03:32:00;;;;;;;3.42;1.23;;;26.60;57.00;;;;;;4144592;28;20033;-71
2022/01/30 03:34:22;;;;;;;2.40;1.17;;;26.50;57.20;;;;;;4142910;28;20481;-73
2022/01/30 03:36:45;;;;;;;3.17;1.42;;;26.40;57.00;;;;;;4146793;28;20408;-75
2022/01/30 03:39:07;;;;;;;2.85;1.10;;;26.40;57.80;;;;;;4145745;28;20030;-77
2022/01/30 03:41:30;;;;;;;2.58;1.27;;;26.30;57.60;;;;;;4140947;28;20844;-71
2022/01/30 03:43:53;;;;;;;3.15;1.45;;;26.30;57.80;;;;;;4141483;28;20053;-70
2022/01/30 03:46:15;;;;;;;2.70;1.23;;;26.20;57.80;;;;;;4145029;28;20057;-76
2022/01/30 03:48:38;;;;;;;2.72;1.17;;;26.20;57.30;;;;;;4143282;28;20048;-73
2022/01/30 03:51:00;;;;;;;2.28;1.17;;;26.10;57.90;;;;;;4140667;28;20037;-72
2022/01/30 03:53:23;;;;;;;2.55;1.27;;;26.00;57.40;;;;;;4142164;28;20034;-72
2022/01/30 03:55:45;;;;;;;1.80;1.00;;;25.90;57.20;;;;;;4148948;28;20057;-72
2022/01/30 03:58:08;;;;;;;1.73;0.98;;;25.80;57.20;;;;;;4142832;28;20041;-73
2022/01/30 04:00:31;;;;;;;2.73;1.33;;;25.60;57.10;;;;;;4142933;28;20674;-73
2022/01/30 04:02:53;;;;;;;2.28;1.55;;;25.60;57.40;;;;;;4141325;28;20616;-71
2022/01/30 04:05:16;;;;;;;3.17;1.20;;;25.50;57.40;;;;;;4144549;28;20199;-71
2022/01/30 04:07:39;;;;;;;2.67;1.37;;;25.40;57.70;;;;;;4142129;28;20037;-74
2022/01/30 04:10:04;;;;;;;2.15;1.10;;;25.30;57.70;;;;;;4153961;28;20660;-74
2022/01/30 04:12:27;;;;;;;2.72;1.50;;;25.20;57.90;;;;;;4159215;28;20045;-74
2022/01/30 04:14:50;;;;;;;3.47;1.50;;;25.10;57.90;;;;;;4146170;28;20044;-72
2022/01/30 04:17:13;;;;;;;4.43;1.65;;;25.10;57.70;;;;;;4156864;28;20534;-72
2022/01/30 04:19:37;;;;;;;2.85;1.60;;;25.00;58.20;;;;;;4158565;28;20041;-73
2022/01/30 04:21:59;;;;;;;3.13;1.45;;;24.90;58.00;;;;;;4154705;28;20067;-72
2022/01/30 04:24:22;;;;;;;2.63;1.70;;;24.80;58.00;;;;;;4152068;28;20037;-76
2022/01/30 04:26:44;;;;;;;2.03;1.20;;;24.80;58.70;;;;;;4159817;28;20094;-73
2022/01/30 04:29:07;;;;;;;2.83;1.55;;;24.80;58.70;;;;;;4157383;28;20033;-72
2022/01/30 04:31:29;;;;;;;3.20;1.60;;;24.70;58.40;;;;;;4159710;28;20030;-73
2022/01/30 04:33:52;;;;;;;4.18;1.40;;;24.70;58.70;;;;;;4159367;28;20025;-74
2022/01/30 04:36:20;;;;;;;2.45;1.20;;;24.60;58.90;;;;;;4164823;28;20037;-76
2022/01/30 04:59:50;;;;;;;2.67;1.25;;;24.60;58.80;;;;;;4158994;28;20033;-79
2022/01/30 05:05:08;;;;;;;2.22;1.13;;;24.50;59.00;;;;;;4166895;28;20083;-74
2022/01/30 05:07:34;;;;;;;2.78;1.17;;;24.50;59.10;;;;;;4161637;28;20036;-74
2022/01/30 05:09:57;;;;;;;2.13;1.23;;;24.40;58.90;;;;;;4156974;28;20057;-69
2022/01/30 05:12:23;;;;;;;1.73;0.80;;;24.40;58.90;;;;;;4138607;28;20036;-68
2022/01/30 05:14:45;;;;;;;1.80;0.82;;;24.40;58.80;;;;;;4157477;28;20099;-71
2022/01/30 05:17:08;;;;;;;2.85;1.10;;;24.30;59.40;;;;;;4153319;28;20037;-71
2022/01/30 05:19:32;;;;;;;2.70;1.45;;;24.30;58.70;;;;;;4159618;28;20108;-71
2022/01/30 05:21:55;;;;;;;2.95;1.48;;;24.30;58.60;;;;;;4154082;28;20077;-71
2022/01/30 05:24:18;;;;;;;3.53;1.52;;;24.20;58.70;;;;;;4155998;28;20041;-72
2022/01/30 05:26:45;;;;;;;3.40;1.98;;;24.20;58.70;;;;;;4157746;28;20102;-71
2022/01/30 05:29:10;;;;;;;3.38;1.60;;;24.10;58.80;;;;;;4157908;28;20149;-70
2022/01/30 05:31:33;;;;;;;4.60;1.50;;;24.10;58.70;;;;;;4157996;28;20805;-68
2022/01/30 05:33:56;;;;;;;3.00;1.55;;;24.10;58.80;;;;;;4156014;28;20049;-68
2022/01/30 05:36:20;;;;;;;2.63;1.35;;;24.10;59.00;;;;;;4154928;28;20060;-68
2022/01/30 05:38:43;;;;;;;3.35;1.45;;;24.10;59.10;;;;;;4154010;28;20052;-67
2022/01/30 05:41:05;;;;;;;2.90;1.52;;;24.10;59.50;;;;;;4158226;28;20069;-66
2022/01/30 05:43:31;;;;;;;3.45;1.58;;;24.00;59.20;;;;;;4155881;28;20072;-67
2022/01/30 05:46:06;;;;;;;3.00;1.42;;;24.00;59.40;;;;;;4156105;28;20060;-67
2022/01/30 05:48:29;;;;;;;3.38;1.60;;;23.90;59.50;;;;;;4146124;28;20364;-67
2022/01/30 05:50:52;;;;;;;3.03;1.35;;;24.00;59.50;;;;;;4148688;28;20507;-67
2022/01/30 05:53:14;;;;;;;3.13;1.30;;;23.90;59.40;;;;;;4151389;28;20052;-68
2022/01/30 05:55:37;;;;;;;3.25;1.83;;;23.90;59.60;;;;;;4152525;28;20470;-66
2022/01/30 05:58:01;;;;;;;1.83;1.20;;;24.00;59.60;;;;;;4154428;28;20084;-67
2022/01/30 06:00:23;;;;;;;3.05;1.40;;;23.90;59.60;;;;;;4144677;28;20038;-69
2022/01/30 06:02:46;;;;;;;3.60;1.35;;;23.90;59.40;;;;;;4147791;28;20080;-68
2022/01/30 06:05:10;;;;;;;2.85;1.50;;;23.90;59.50;;;;;;4152824;28;20034;-68
2022/01/30 06:07:32;;;;;;;1.80;1.25;;;23.80;59.50;;;;;;4145616;28;20448;-66
2022/01/30 06:09:55;;;;;;;2.58;1.38;;;23.80;59.50;;;;;;4148322;28;20110;-66
2022/01/30 06:12:17;;;;;;;2.20;1.38;;;23.80;59.50;;;;;;4149441;28;20041;-68
2022/01/30 06:14:40;;;;;;;2.20;1.50;;;23.70;59.50;;;;;;4148013;28;20075;-70
2022/01/30 06:17:03;;;;;;;3.25;1.90;;;23.70;59.60;;;;;;4153084;28;20037;-70
2022/01/30 06:19:26;;;;;;;1.85;1.23;;;23.60;59.40;;;;;;4159305;28;20418;-70
2022/01/30 06:21:49;;;;;;;1.90;1.30;;;23.60;59.40;;;;;;4156312;28;20500;-67
2022/01/30 06:24:11;;;;;;;2.00;1.30;;;23.60;59.60;;;;;;4155176;28;20053;-69
2022/01/30 06:26:34;;;;;;;3.20;1.58;;;23.80;60.10;;;;;;4154119;28;20030;-67
2022/01/30 06:28:56;;;;;;;2.38;1.48;;;24.10;60.50;;;;;;4158602;28;20481;-66
2022/01/30 06:31:19;;;;;;;4.15;1.50;;;24.30;61.50;;;;;;4156167;28;20136;-67
2022/01/30 06:33:41;;;;;;;2.40;1.15;;;24.50;62.50;;;;;;4157719;28;20050;-67
2022/01/30 06:36:04;;;;;;;3.88;1.55;;;24.80;63.20;;;;;;4153258;28;20037;-66
2022/01/30 06:38:26;;;;;;;4.95;1.48;;;25.10;63.50;;;;;;4158152;28;20049;-70
2022/01/30 06:40:48;;;;;;;4.88;1.90;;;25.30;63.80;;;;;;4154360;28;20049;-68
2022/01/30 06:43:11;;;;;;;4.68;1.98;;;25.60;64.40;;;;;;4143075;28;20030;-69
2022/01/30 06:45:35;;;;;;;3.38;1.50;;;25.80;64.10;;;;;;4153983;28;20045;-68
2022/01/30 06:47:56;;;;;;;;;;;26.00;63.50;;;;;;4158871;28;20049;-68
2022/01/30 06:50:19;;;;;;;4.88;1.70;;;26.20;63.00;;;;;;4159043;28;19924;-69
2022/01/30 06:52:42;;;;;;;4.15;1.58;;;26.40;62.50;;;;;;4140534;28;20576;-69
2022/01/30 06:55:06;;;;;;;4.63;1.60;;;26.60;62.10;;;;;;4159462;28;20069;-68
2022/01/30 06:57:28;;;;;;;4.13;1.67;;;26.80;61.80;;;;;;4155769;28;20183;-68
2022/01/30 06:59:50;;;;;;;4.10;1.63;;;26.90;61.40;;;;;;4152173;28;20415;-69
2022/01/30 07:02:13;;;;;;;5.28;1.95;;;27.00;61.80;;;;;;4161041;28;20087;-69
2022/01/30 07:04:35;;;;;;;4.20;1.90;;;27.10;61.00;;;;;;4156744;28;20081;-67
2022/01/30 07:06:58;;;;;;;4.70;1.50;;;27.30;60.80;;;;;;4156441;28;20113;-68
2022/01/30 07:09:20;;;;;;;2.83;1.30;;;27.30;60.80;;;;;;4155736;28;20046;-68
2022/01/30 07:11:43;;;;;;;4.80;1.40;;;27.40;60.60;;;;;;4147920;28;20033;-68
2022/01/30 07:14:05;;;;;;;4.35;1.48;;;27.50;60.40;;;;;;4141576;28;20038;-68
2022/01/30 07:16:28;;;;;;;2.17;1.25;;;27.50;60.30;;;;;;4149505;28;20033;-68
2022/01/30 07:18:50;;;;;;;2.33;1.27;;;27.60;60.20;;;;;;4151848;28;20727;-71
2022/01/30 07:21:13;;;;;;;3.92;1.63;;;27.70;60.10;;;;;;4152405;28;20455;-78
2022/01/30 07:23:35;;;;;;;4.85;1.65;;;27.80;60.10;;;;;;4136431;28;20149;-80
2022/01/30 07:25:58;;;;;;;5.40;1.43;;;27.80;60.10;;;;;;4153330;28;20507;-76
2022/01/30 07:28:21;;;;;;;5.22;1.48;;;27.90;60.00;;;;;;4144382;28;20527;-80
2022/01/30 07:30:43;;;;;;;3.38;1.35;;;27.90;59.90;;;;;;4153729;28;20425;-77
2022/01/30 07:33:06;;;;;;;3.17;1.30;;;28.00;59.80;;;;;;4153582;28;20034;-74
2022/01/30 07:35:28;;;;;;;3.05;1.40;;;28.00;59.80;;;;;;4151834;28;20163;-75
2022/01/30 07:37:51;;;;;;;2.75;1.30;;;28.10;59.80;;;;;;4147900;28;20066;-77
2022/01/30 07:40:14;;;;;;;4.57;1.50;;;28.20;59.70;;;;;;4145635;28;20040;-80
2022/01/30 07:42:36;;;;;;;4.45;1.40;;;28.20;59.70;;;;;;4141560;28;20060;-78
2022/01/30 07:44:59;;;;;;;3.92;1.20;;;28.30;59.70;;;;;;4151414;28;20086;-78
2022/01/30 07:47:22;;;;;;;4.40;1.45;;;28.30;59.60;;;;;;4147887;28;20033;-78
2022/01/30 07:49:49;;;;;;;2.55;0.95;;;28.30;59.60;;;;;;4152709;28;20562;-80
2022/01/30 07:52:11;;;;;;;4.03;1.20;;;28.40;59.70;;;;;;4150165;28;20422;-79
2022/01/30 07:54:35;;;;;;;3.60;1.40;;;28.40;59.60;;;;;;4150931;28;20034;-77
2022/01/30 07:56:58;;;;;;;3.80;1.50;;;28.40;59.60;;;;;;4151434;28;20034;-68
2022/01/30 07:59:21;;;;;;;2.17;1.17;;;28.50;59.70;;;;;;4151065;28;20045;-67
2022/01/30 08:01:43;;;;;;;3.17;1.20;;;28.50;59.60;;;;;;4147827;28;20169;-69
2022/01/30 08:04:06;;;;;;;2.33;1.02;;;28.50;59.60;;;;;;4145744;28;20291;-68
2022/01/30 08:06:29;;;;;;;2.10;0.90;;;28.50;59.60;;;;;;4151532;28;20144;-68
2022/01/30 08:08:51;;;;;;;3.15;1.45;;;28.60;59.70;;;;;;4143419;28;20115;-68
2022/01/30 08:11:14;;;;;;;2.53;1.30;;;28.60;59.60;;;;;;4154367;28;20045;-68
2022/01/30 08:13:36;;;;;;;1.85;0.75;;;28.60;59.60;;;;;;4152174;28;20037;-68
2022/01/30 08:16:02;;;;;;;3.10;1.23;;;28.60;59.60;;;;;;4132506;28;20072;-68
2022/01/30 08:18:24;;;;;;;2.03;1.20;;;28.60;60.20;;;;;;4154841;28;20084;-68
2022/01/30 08:20:47;;;;;;;2.78;1.10;;;28.70;59.60;;;;;;4150945;28;20060;-68
2022/01/30 08:23:15;;;;;;;3.15;1.27;;;28.70;59.60;;;;;;4145703;28;20053;-68
2022/01/30 08:25:38;;;;;;;2.35;1.00;;;28.70;59.60;;;;;;4149445;28;20048;-67
2022/01/30 08:28:00;;;;;;;3.13;1.10;;;28.70;59.60;;;;;;4151410;28;20152;-68
2022/01/30 08:30:22;;;;;;;4.38;1.58;;;28.70;59.60;;;;;;4143532;28;20391;-68
2022/01/30 08:32:48;;;;;;;2.58;1.00;;;28.70;59.60;;;;;;4150142;28;20037;-69
2022/01/30 08:35:12;;;;;;;2.63;1.10;;;28.80;59.70;;;;;;4151231;28;20029;-69
2022/01/30 08:37:35;;;;;;;3.95;1.25;;;28.80;59.70;;;;;;4149378;28;20037;-67
2022/01/30 08:39:58;;;;;;;3.97;1.25;;;28.80;59.70;;;;;;4156211;28;20044;-67
2022/01/30 08:42:20;;;;;;;2.25;1.00;;;28.80;59.70;;;;;;4157550;28;20476;-67
2022/01/30 08:44:42;;;;;;;1.75;1.10;;;28.80;59.70;;;;;;4151273;28;20099;-68
2022/01/30 08:47:05;;;;;;;1.92;0.90;;;28.80;59.80;;;;;;4139168;28;20037;-67
2022/01/30 08:49:28;;;;;;;1.85;0.98;;;28.80;59.80;;;;;;4149626;28;20029;-68
2022/01/30 08:51:50;;;;;;;2.67;0.93;;;28.80;59.70;;;;;;4145668;28;20125;-68
2022/01/30 08:54:12;;;;;;;2.90;0.95;;;28.80;60.10;;;;;;4146376;28;20112;-67
2022/01/30 08:56:35;;;;;;;3.05;0.93;;;28.90;60.20;;;;;;4142910;28;20133;-69
2022/01/30 08:58:58;;;;;;;2.50;1.10;;;28.90;59.80;;;;;;4145692;28;20045;-67
2022/01/30 09:01:20;;;;;;;1.83;0.93;;;28.70;57.10;;;;;;4134105;28;20034;-67
2022/01/30 09:03:44;;;;;;;2.58;0.77;;;28.50;56.50;;;;;;4144357;28;20041;-67
2022/01/30 09:06:07;;;;;;;2.17;0.98;;;28.20;55.60;;;;;;4151009;28;20041;-67
2022/01/30 09:08:29;;;;;;;3.13;1.48;;;27.90;54.90;;;;;;4156590;28;20526;-67
2022/01/30 09:10:52;;;;;;;1.70;0.98;;;27.70;55.30;;;;;;4148002;28;20054;-67
2022/01/30 09:13:14;;;;;;;1.17;0.70;;;27.40;55.20;;;;;;4149858;28;20053;-67
2022/01/30 09:15:42;;;;;;;2.15;1.00;;;27.20;55.00;;;;;;4152900;28;20030;-66
2022/01/30 09:18:08;;;;;;;1.33;0.90;;;27.00;54.90;;;;;;4137785;28;20088;-67
2022/01/30 09:20:31;;;;;;;2.30;1.00;;;26.80;54.70;;;;;;4136435;28;20122;-68
2022/01/30 09:22:53;;;;;;;4.40;1.10;;;26.70;54.50;;;;;;4138123;28;20042;-69
2022/01/30 09:25:16;;;;;;;3.67;1.25;;;26.50;55.20;;;;;;4140418;28;20034;-70
2022/01/30 09:27:39;;;;;;;1.98;0.90;;;26.40;55.40;;;;;;4131716;28;20075;-68
2022/01/30 09:30:01;;;;;;;2.30;0.82;;;26.30;55.60;;;;;;4139470;28;20533;-68
2022/01/30 09:32:24;;;;;;;2.17;0.77;;;26.20;55.60;;;;;;4139492;28;20105;-67
2022/01/30 09:34:46;;;;;;;2.28;1.00;;;26.10;55.40;;;;;;4137723;28;20050;-68
2022/01/30 09:37:09;;;;;;;2.17;1.00;;;26.00;55.80;;;;;;4139572;28;20150;-70
2022/01/30 09:39:32;;;;;;;1.75;1.20;;;25.90;55.60;;;;;;4137284;28;20042;-67
2022/01/30 09:41:55;;;;;;;2.35;1.10;;;25.80;55.50;;;;;;4137073;28;20034;-68
2022/01/30 09:44:18;;;;;;;1.88;1.00;;;25.70;55.60;;;;;;4139261;28;20069;-66
2022/01/30 09:46:42;;;;;;;3.50;0.95;;;25.60;55.70;;;;;;4137463;28;20037;-75
2022/01/30 09:49:06;;;;;;;2.58;1.20;;;25.50;55.60;;;;;;4144383;28;20041;-78
2022/01/30 09:51:28;;;;;;;;;;;25.40;55.50;;;;;;4149356;28;20072;-79
2022/01/30 09:53:51;;;;;;;3.17;0.85;;;25.30;55.50;;;;;;4141021;28;19920;-79
2022/01/30 09:56:13;;;;;;;1.30;0.80;;;25.20;55.60;;;;;;4143872;28;20053;-76
2022/01/30 09:58:36;;;;;;;2.33;1.00;;;25.20;55.60;;;;;;4140829;28;20033;-74
2022/01/30 10:00:58;;;;;;;2.20;0.90;;;25.10;55.70;;;;;;4138829;28;20034;-74
2022/01/30 10:03:23;;;;;;;1.58;1.00;;;25.00;55.60;;;;;;4141124;28;20052;-72
2022/01/30 10:06:29;;;;;;;1.75;0.90;;;24.90;55.80;;;;;;4141988;28;20037;-76
2022/01/30 10:08:56;;;;;;;1.55;0.80;;;24.80;55.60;;;;;;4112281;28;20113;-75
2022/01/30 10:11:34;;;;;;;1.48;1.00;;;24.70;55.40;;;;;;4129324;28;20107;-74
2022/01/30 10:14:14;;;;;;;1.83;0.90;;;24.50;55.20;;;;;;4136844;28;20056;-77
2022/01/30 10:16:48;;;;;;;1.40;0.90;;;24.40;55.60;;;;;;4141114;28;20035;-74
2022/01/30 10:19:13;;;;;;;2.63;0.80;;;24.20;55.70;;;;;;4144933;28;20030;-74
2022/01/30 10:21:35;;;;;;;3.00;1.05;;;24.10;55.80;;;;;;4146695;28;20049;-73
2022/01/30 10:23:58;;;;;;;4.28;1.20;;;24.00;55.90;;;;;;4146993;28;20046;-77
2022/01/30 10:26:31;;;;;;;4.88;2.17;;;23.90;55.90;;;;;;4135602;28;20485;-77
2022/01/30 10:28:57;;;;;;;5.63;2.58;;;23.80;56.10;;;;;;4132885;28;20088;-77
2022/01/30 10:31:23;;;;;;;5.50;2.78;;;23.60;56.40;;;;;;4135175;28;20178;-77
2022/01/30 10:33:48;;;;;;;8.98;3.28;;;23.60;57.00;;;;;;4138098;28;20120;-76
2022/01/30 10:36:11;;;;;;;6.30;3.15;;;23.50;56.60;;;;;;4133128;28;20038;-73
2022/01/30 10:38:39;;;;;;;6.05;3.17;;;23.50;57.80;;;;;;4126859;28;20073;-76
2022/01/30 10:41:16;;;;;;;5.80;3.03;;;23.60;57.80;;;;;;4131198;28;20045;-76
2022/01/30 10:43:59;;;;;;;6.90;3.03;;;23.70;58.40;;;;;;4135410;28;20066;-69
2022/01/30 10:46:28;;;;;;;6.35;2.65;;;23.90;58.80;;;;;;4134360;28;20092;-68
2022/01/30 10:48:57;;;;;;;6.47;3.13;;;24.10;59.00;;;;;;4134477;28;20049;-69
2022/01/30 10:51:19;;;;;;;5.60;3.22;;;24.20;59.20;;;;;;4131625;28;20033;-70
2022/01/30 10:53:43;;;;;;;6.32;2.80;;;24.40;59.30;;;;;;4136066;28;20034;-69
2022/01/30 10:56:24;;;;;;;7.25;3.33;;;24.50;59.30;;;;;;4136002;28;20042;-69
2022/01/30 10:59:06;;;;;;;9.10;2.92;;;24.70;59.50;;;;;;4137548;28;20042;-75
2022/01/30 11:01:29;;;;;;;6.65;3.00;;;24.90;59.60;;;;;;4136300;28;20648;-71
2022/01/30 11:03:55;;;;;;;5.95;2.97;;;25.00;59.90;;;;;;4136883;28;20049;-70
2022/01/30 11:06:18;;;;;;;6.75;3.08;;;25.10;59.80;;;;;;4137938;28;20155;-71
2022/01/30 11:08:45;;;;;;;5.32;2.38;;;25.20;59.80;;;;;;4137278;28;20414;-71
2022/01/30 11:11:38;;;;;;;7.88;2.80;;;25.30;59.80;;;;;;4134468;28;20535;-70
2022/01/30 11:19:12;;;;;;;8.90;2.90;;;25.70;60.40;;;;;;4135247;28;20131;-75
2022/01/30 11:21:38;;;;;;;5.32;2.33;;;25.80;60.40;;;;;;4138050;28;20092;-76
2022/01/30 11:24:01;;;;;;;5.53;2.60;;;25.90;60.40;;;;;;4140967;28;20054;-78
2022/01/30 11:26:24;;;;;;;13.20;3.10;;;26.00;60.50;;;;;;4141861;28;20072;-79
2022/01/30 11:28:46;;;;;;;7.90;2.65;;;26.00;60.50;;;;;;4140371;28;20038;-77
2022/01/30 11:31:10;;;;;;;6.55;2.60;;;26.10;60.60;;;;;;4140609;28;20034;-75
2022/01/30 11:33:32;;;;;;;5.03;2.70;;;26.20;60.60;;;;;;4141244;28;20079;-78
2022/01/30 11:35:55;;;;;;;5.53;2.75;;;26.30;60.70;;;;;;4142093;28;20029;-76
2022/01/30 11:38:18;;;;;;;5.20;2.50;;;26.30;60.70;;;;;;4143530;28;20054;-76
2022/01/30 11:40:40;;;;;;;5.80;2.50;;;26.40;60.70;;;;;;4137423;28;20050;-76
2022/01/30 11:43:09;;;;;;;6.35;2.50;;;26.50;61.00;;;;;;4143182;28;20410;-79
2022/01/30 11:45:32;;;;;;;11.15;2.72;;;26.50;60.90;;;;;;4146350;28;20041;-76
2022/01/30 11:48:02;;;;;;;3.93;2.23;;;26.60;61.10;;;;;;4142509;28;20064;-75
2022/01/30 11:50:29;;;;;;;5.88;2.40;;;26.60;61.00;;;;;;4150054;28;20707;-78
2022/01/30 11:53:00;;;;;;;6.05;2.65;;;26.70;61.00;;;;;;4151814;28;20140;-77
2022/01/30 11:55:57;;;;;;;5.55;2.33;;;26.80;61.00;;;;;;4147019;28;20033;-77
2022/01/30 11:58:31;;;;;;;5.72;2.42;;;26.80;61.00;;;;;;4143185;28;20423;-76
2022/01/30 12:00:54;;;;;;;4.93;1.98;;;26.90;61.10;;;;;;4145132;28;20049;-78
2022/01/30 12:03:37;;;;;;;3.90;2.03;;;27.00;61.20;;;;;;4144492;28;20101;-79
2022/01/30 12:06:21;;;;;;;5.10;2.33;;;27.00;61.30;;;;;;4148840;28;20029;-76
2022/01/30 12:08:48;;;;;;;5.53;2.22;;;27.10;61.50;;;;;;4144550;28;20045;-77
2022/01/30 12:11:40;;;;;;;4.97;2.08;;;27.10;61.80;;;;;;4161011;28;20059;-79
2022/01/30 12:14:03;;;;;;;6.13;2.53;;;27.20;61.70;;;;;;4144825;28;20042;-75
2022/01/30 12:16:44;;;;;;;4.55;2.13;;;27.20;61.90;;;;;;4158881;28;20038;-80
2022/01/30 12:19:07;;;;;;;11.10;2.30;;;27.30;61.90;;;;;;4165205;28;20092;-78
2022/01/30 12:21:29;;;;;;;8.65;2.80;;;27.30;61.90;;;;;;4146811;28;20377;-76
2022/01/30 12:23:52;;;;;;;5.63;2.08;;;27.30;61.70;;;;;;4150139;28;20045;-77
2022/01/30 12:26:15;;;;;;;10.95;2.40;;;27.30;61.60;;;;;;4166761;28;20091;-77
2022/01/30 12:28:55;;;;;;;10.20;2.57;;;27.40;61.70;;;;;;4161827;28;20095;-79
2022/01/30 12:31:36;;;;;;;7.68;2.15;;;27.40;61.70;;;;;;4159395;28;20102;-82
2022/01/30 12:34:10;;;;;;;8.50;2.25;;;27.40;61.80;;;;;;4155908;28;20038;-74
2022/01/30 12:36:41;;;;;;;6.65;2.20;;;27.50;61.80;;;;;;4163563;28;20048;-79
2022/01/30 12:39:07;;;;;;;6.85;2.20;;;27.50;61.80;;;;;;4163237;28;20084;-79
2022/01/30 12:41:31;;;;;;;15.73;2.67;;;27.50;61.80;;;;;;4159741;28;20624;-76
2022/01/30 12:43:54;;;;;;;;;;;27.50;61.90;;;;;;4161812;28;20132;-77
2022/01/30 12:46:17;;;;;;;11.95;2.20;;;27.60;62.00;;;;;;4164941;28;19917;-76
2022/01/30 12:48:40;;;;;;;6.68;1.98;;;27.60;62.00;;;;;;4164876;28;20041;-78
2022/01/30 12:51:07;;;;;;;11.85;2.63;;;27.60;62.50;;;;;;4163320;28;20045;-77
2022/01/30 12:53:33;;;;;;;9.93;2.30;;;27.60;62.10;;;;;;4162387;28;20064;-77
2022/01/30 12:55:56;;;;;;;4.40;2.15;;;27.60;62.10;;;;;;4163190;28;20083;-76
2022/01/30 12:58:18;;;;;;;6.80;2.03;;;27.70;62.50;;;;;;4161942;28;20038;-77
2022/01/30 13:00:41;;;;;;;13.40;2.90;;;27.70;62.50;;;;;;4160111;28;20487;-78
2022/01/30 13:03:03;;;;;;;5.78;1.95;;;27.70;62.50;;;;;;4157267;28;20103;-78
2022/01/30 13:05:28;;;;;;;7.57;2.50;;;27.70;62.50;;;;;;4156317;28;20048;-75
2022/01/30 13:07:58;;;;;;;25.10;2.65;;;27.70;62.50;;;;;;4159507;28;20407;-76
2022/01/30 13:10:21;;;;;;;8.77;2.60;;;27.70;62.50;;;;;;4158331;28;20054;-78
2022/01/30 13:12:45;;;;;;;10.48;2.20;;;27.80;62.50;;;;;;4154586;28;20041;-81
2022/01/30 13:15:14;;;;;;;;;;;27.80;62.50;;;;;;4145073;28;20092;-78
2022/01/30 13:17:39;;;;;;;9.00;1.75;;;27.80;62.50;;;;;;4160615;28;20295;-81
2022/01/30 13:20:04;;;;;;;6.38;1.70;;;27.80;62.60;;;;;;4143978;28;20037;-81
2022/01/30 13:22:33;;;;;;;9.60;2.55;;;27.80;62.50;;;;;;4156259;28;20144;-82
2022/01/30 13:25:01;;;;;;;5.80;1.98;;;27.80;62.50;;;;;;4156746;28;20049;-82
2022/01/30 13:27:24;;;;;;;9.43;2.03;;;27.90;62.80;;;;;;4154137;28;20123;-78
2022/01/30 13:29:47;;;;;;;5.15;1.98;;;27.90;62.60;;;;;;4156374;28;20037;-77
2022/01/30 13:32:12;;;;;;;4.57;1.70;;;27.90;62.50;;;;;;4156867;28;20908;-76